UKLL/LWO METAR and TAF weather

Enter ICAO airport designator
Station Type Date Time Source
UKLL METAR 2019/11/13 02:00 UTC NOAA

UKLL 130200Z 15007MPS CAVOK 12/09 Q1009 R13/CLRD// NOSIG


Station Type Date Time Source
UKLL Decoded METAR 2019/11/13 02:00 UTC NOAA

L'Viv, Ukraine (UKLL) 49-49N 023-57E 323M
Nov 12, 2019 - 09:00 PM EST / 2019.11.13 0200 UTC
Wind: from the SSE (150 degrees) at 16 MPH (14 KT):0
Visibility: greater than 7 mile(s):0
Temperature: 53 F (12 C)
Dew Point: 48 F (9 C)
Relative Humidity: 81%
Pressure (altimeter): 29.80 in. Hg (1009 hPa)
ob: UKLL 130200Z 15007MPS CAVOK 12/09 Q1009 R13/CLRD// NOSIG
cycle: 2

Station Type Date Time Source
UKLL TAF 2019/11/12 18:18 UTC NOAA

TAF UKLL 121703Z 1218/1318 14007G14MPS 6000 BKN010
TEMPO 1218/1303 2100 BR BKN007
TEMPO 1303/1318 15009G17MPS

Example: see airport list